This is the latest recevied weather packets stored in our database for station/object KB0BDN-13. If no packets are shown the sender has not sent any weather packets the latest 10 day(s).
| Time | Temp. | Humidity | Pressure | Rain* | Wind** | Luminosity | Snow |
|---|---|---|---|---|---|---|---|
| 1788493595 | 15.56° C | 95% | 1008.7 hPa | 5.59 mm | - | - | - |
| 1788492695 | 15.56° C | 94% | 1008.8 hPa | 4.06 mm | - | - | - |
| 1788492553 | 15.56° C | 94% | 1009.9 hPa | 4.06 mm | - | - | - |
| 1788491795 | 16.11° C | 92% | 1009.9 hPa | 3.05 mm | - | - | - |
| 1788491653 | 16.11° C | 91% | 1010.4 hPa | 2.79 mm | - | - | - |
| 1788490895 | 17.22° C | 87% | 1010.4 hPa | 0.76 mm | - | - | - |
| 1788490753 | 17.22° C | 85% | 1007.7 hPa | 0.51 mm | - | - | - |
| 1788489995 | 17.78° C | 80% | 1007.7 hPa | 0 mm | - | - | - |
| 1788489095 | 17.78° C | 80% | 1007.6 hPa | 0 mm | - | - | - |
| 1788488953 | 17.78° C | 80% | 1007.7 hPa | 0 mm | - | - | - |
| 1788488195 | 17.78° C | 80% | 1007.7 hPa | 0 mm | - | - | - |
| 1788488053 | 17.78° C | 80% | 1007.5 hPa | 0 mm | - | - | - |
| 1788487295 | 17.78° C | 80% | 1007.5 hPa | 0 mm | - | - | - |
| 1788487152 | 17.78° C | 80% | 1007.5 hPa | 0 mm | - | - | - |
| 1788486395 | 17.78° C | 80% | 1007.5 hPa | 0 mm | - | - | - |
| 1788485495 | 17.78° C | 79% | 1007.7 hPa | 0 mm | - | - | - |
| 1788485353 | 17.78° C | 79% | 1007.1 hPa | 0 mm | - | - | - |
| 1788484595 | 17.78° C | 80% | 1007.1 hPa | 0 mm | - | - | - |
| 1788484453 | 17.78° C | 79% | 1006.9 hPa | 0 mm | - | - | - |
| 1788483695 | 17.78° C | 81% | 1006.9 hPa | 0 mm | - | - | - |
| 1788483553 | 17.78° C | 81% | 1006.7 hPa | 0 mm | - | - | - |
| 1788482795 | 18.33° C | 81% | 1006.7 hPa | 0 mm | - | - | - |
| 1788481895 | 18.33° C | 80% | 1006.7 hPa | 0 mm | - | - | - |
| 1788480994 | 18.89° C | 80% | 1006.4 hPa | 0 mm | - | - | - |
| 1788480853 | 18.89° C | 80% | 1006.6 hPa | 0 mm | - | - | - |
* Rain latest hour (hover to see other rain measurements)
** Current wind speed in m/s (hover to see current wind gust speed)